createdAt,value
2022-10-17T00:00:05.990Z,12.75
2022-10-17T00:01:10.538Z,12.71
2022-10-17T00:02:12.369Z,12.72
2022-10-17T00:03:16.795Z,12.75
2022-10-17T00:04:18.645Z,12.76
2022-10-17T00:05:23.106Z,12.81
2022-10-17T00:06:24.911Z,12.86
2022-10-17T00:07:29.676Z,12.90
2022-10-17T00:08:31.913Z,12.94
2022-10-17T00:09:36.353Z,12.95
2022-10-17T00:10:39.534Z,12.97
2022-10-17T00:11:43.962Z,12.98
2022-10-17T00:12:45.826Z,12.96
2022-10-17T00:13:51.106Z,12.95
2022-10-17T00:14:52.966Z,12.93
2022-10-17T00:15:58.242Z,12.86
2022-10-17T00:17:00.119Z,12.89
2022-10-17T00:18:04.538Z,12.86
2022-10-17T00:19:09.795Z,12.84
2022-10-17T00:20:12.023Z,12.81
2022-10-17T00:21:20.116Z,12.79
2022-10-17T00:22:22.890Z,12.74
2022-10-17T00:23:27.631Z,12.70
2022-10-17T00:24:30.700Z,12.68
2022-10-17T00:25:35.215Z,12.66
2022-10-17T00:26:37.097Z,12.62
2022-10-17T00:27:42.094Z,12.58
2022-10-17T00:28:46.497Z,12.56
2022-10-17T00:29:51.757Z,12.53
2022-10-17T00:30:57.472Z,12.52
2022-10-17T00:32:01.898Z,12.49
2022-10-17T00:33:03.766Z,12.48
2022-10-17T00:34:08.332Z,12.46
2022-10-17T00:35:10.320Z,12.46
2022-10-17T00:36:15.001Z,12.46
2022-10-17T00:37:20.051Z,12.46
2022-10-17T00:38:21.926Z,12.49
2022-10-17T00:39:26.371Z,12.52
2022-10-17T00:40:28.190Z,12.53
2022-10-17T00:41:34.538Z,12.56
2022-10-17T00:42:40.554Z,12.58
2022-10-17T00:43:57.211Z,12.60
2022-10-17T00:45:01.173Z,12.61
2022-10-17T00:46:05.693Z,12.63
2022-10-17T00:47:09.687Z,12.65
2022-10-17T00:48:14.130Z,12.65
2022-10-17T00:49:16.028Z,12.66
2022-10-17T00:50:20.447Z,12.66
2022-10-17T00:51:23.843Z,12.63
2022-10-17T00:52:30.500Z,12.60
2022-10-17T00:53:33.195Z,12.57
2022-10-17T00:54:38.370Z,12.53
2022-10-17T00:55:45.085Z,12.49
2022-10-17T00:56:50.074Z,12.45
2022-10-17T00:57:51.986Z,12.41
2022-10-17T00:58:56.913Z,12.38
2022-10-17T00:59:58.861Z,12.37
2022-10-17T01:01:03.562Z,12.35
2022-10-17T01:02:09.792Z,12.33
2022-10-17T01:03:14.194Z,12.33
2022-10-17T01:04:16.727Z,12.35
2022-10-17T01:05:21.172Z,12.37
2022-10-17T01:06:23.015Z,12.41
2022-10-17T01:07:27.631Z,12.46
2022-10-17T01:08:29.522Z,12.52
2022-10-17T01:09:33.914Z,12.58
2022-10-17T01:11:04.770Z,12.60
2022-10-17T01:12:08.472Z,12.73
2022-10-17T01:13:24.863Z,12.78
2022-10-17T01:14:29.572Z,12.81
2022-10-17T01:15:37.214Z,12.83
2022-10-17T01:16:39.049Z,12.82
2022-10-17T01:17:46.568Z,12.79
2022-10-17T01:19:09.946Z,12.77
2022-10-17T01:20:11.761Z,12.70
2022-10-17T01:21:34.527Z,12.65
2022-10-17T01:22:39.246Z,12.56
2022-10-17T01:23:47.941Z,12.51
2022-10-17T01:25:02.253Z,12.47
2022-10-17T01:26:08.993Z,12.46
2022-10-17T01:27:18.284Z,12.46
2022-10-17T01:28:23.977Z,12.39
2022-10-17T01:29:30.539Z,12.46
2022-10-17T01:30:55.247Z,12.45
2022-10-17T01:31:57.085Z,12.44
2022-10-17T01:33:22.777Z,12.46
2022-10-17T01:34:31.455Z,12.47
2022-10-17T01:35:40.165Z,12.48
2022-10-17T01:36:45.001Z,12.48
2022-10-17T01:39:38.382Z,12.51
2022-10-17T01:40:44.692Z,12.49
2022-10-17T01:41:54.825Z,12.49
2022-10-17T01:43:08.090Z,12.48
2022-10-17T01:44:13.041Z,12.47
2022-10-17T01:45:16.922Z,12.47
2022-10-17T01:46:39.095Z,12.46
2022-10-17T01:47:40.899Z,12.47
2022-10-17T01:48:45.892Z,12.44
2022-10-17T01:49:47.739Z,12.45
2022-10-17T01:50:56.459Z,12.43
2022-10-17T01:51:59.795Z,12.38
2022-10-17T01:53:06.087Z,12.35
2022-10-17T01:54:10.608Z,12.31
2022-10-17T01:55:16.983Z,12.27
2022-10-17T01:56:18.802Z,12.25
2022-10-17T01:57:26.439Z,12.23
2022-10-17T01:58:30.210Z,12.19
2022-10-17T01:59:38.057Z,12.18
2022-10-17T02:00:42.782Z,12.16
2022-10-17T02:01:47.912Z,12.14
2022-10-17T02:02:51.269Z,12.12
2022-10-17T02:03:55.801Z,12.11
2022-10-17T02:04:57.661Z,12.10
2022-10-17T02:06:02.546Z,12.09
2022-10-17T02:07:10.634Z,12.10
2022-10-17T02:08:15.329Z,12.07
2022-10-17T02:09:17.412Z,12.09
2022-10-17T02:10:24.378Z,12.09
2022-10-17T02:11:26.998Z,12.08
2022-10-17T02:12:46.279Z,12.07
2022-10-17T02:13:48.366Z,12.07
2022-10-17T02:15:12.155Z,12.07
2022-10-17T02:16:14.197Z,12.07
2022-10-17T02:17:21.497Z,12.06
2022-10-17T02:18:31.602Z,12.05
2022-10-17T02:19:39.033Z,12.03
2022-10-17T02:20:49.714Z,12.02
2022-10-17T02:21:56.275Z,12.00
2022-10-17T02:23:26.893Z,12.00
2022-10-17T02:24:37.772Z,12.00
2022-10-17T02:25:56.473Z,11.99
2022-10-17T02:27:07.733Z,11.97
2022-10-17T02:28:17.103Z,11.96
2022-10-17T02:29:20.081Z,11.96
2022-10-17T02:30:24.501Z,11.95
2022-10-17T02:31:27.264Z,11.94
2022-10-17T02:32:31.647Z,11.90
2022-10-17T02:34:02.322Z,11.87
2022-10-17T02:35:04.463Z,11.84
2022-10-17T02:36:16.183Z,11.81
2022-10-17T02:37:19.021Z,11.80
2022-10-17T02:38:23.542Z,11.78
2022-10-17T02:39:25.823Z,11.76
2022-10-17T02:40:30.450Z,11.75
2022-10-17T02:41:32.443Z,11.74
2022-10-17T02:42:36.915Z,11.74
2022-10-17T02:43:38.746Z,11.72
2022-10-17T02:44:43.660Z,11.73
2022-10-17T02:45:51.376Z,11.73
2022-10-17T02:46:56.122Z,11.72
2022-10-17T02:48:11.795Z,11.72
2022-10-17T02:49:17.995Z,11.71
2022-10-17T02:50:23.070Z,11.68
2022-10-17T02:51:27.795Z,11.66
2022-10-17T02:52:44.488Z,11.63
2022-10-17T02:53:48.934Z,11.59
2022-10-17T02:54:56.841Z,11.57
2022-10-17T02:56:00.636Z,11.54
2022-10-17T02:57:12.734Z,11.52
2022-10-17T02:58:19.234Z,11.50
2022-10-17T02:59:24.560Z,11.50
2022-10-17T03:00:26.703Z,11.50
2022-10-17T03:01:31.275Z,11.51
2022-10-17T03:02:43.627Z,11.52
2022-10-17T03:03:48.154Z,11.52
2022-10-17T03:04:50.001Z,11.53
2022-10-17T03:05:55.036Z,11.53
2022-10-17T03:06:59.472Z,11.53
2022-10-17T03:08:03.878Z,11.52
2022-10-17T03:09:05.809Z,11.53
2022-10-17T03:10:10.420Z,11.54
2022-10-17T03:11:12.458Z,11.55
2022-10-17T03:12:17.523Z,11.58
2022-10-17T03:13:19.463Z,11.61
2022-10-17T03:14:24.011Z,11.65
2022-10-17T03:15:26.583Z,11.72
2022-10-17T03:16:31.094Z,11.77
2022-10-17T03:17:32.989Z,11.81
2022-10-17T03:18:37.483Z,11.87
2022-10-17T03:19:39.616Z,11.95
2022-10-17T03:20:44.032Z,12.00
2022-10-17T03:21:45.971Z,12.06
2022-10-17T03:22:50.395Z,12.12
2022-10-17T03:23:52.234Z,12.18
2022-10-17T03:24:58.850Z,12.23
2022-10-17T03:26:03.800Z,12.30
2022-10-17T03:27:08.397Z,12.37
2022-10-17T03:28:12.929Z,12.42
2022-10-17T03:29:17.524Z,12.47
2022-10-17T03:30:19.848Z,12.53
2022-10-17T03:31:24.332Z,12.58
2022-10-17T03:32:27.358Z,12.63
2022-10-17T03:33:31.982Z,12.69
2022-10-17T03:34:33.819Z,12.71
2022-10-17T03:35:38.853Z,12.75
2022-10-17T03:36:44.073Z,12.77
2022-10-17T03:37:47.193Z,12.77
2022-10-17T03:38:53.111Z,12.79
2022-10-17T03:39:54.937Z,12.78
2022-10-17T03:40:59.419Z,12.77
2022-10-17T03:42:01.737Z,12.78
2022-10-17T03:43:06.234Z,12.76
2022-10-17T03:44:08.069Z,12.73
2022-10-17T03:45:12.967Z,12.70
2022-10-17T03:46:14.930Z,12.69
2022-10-17T03:47:19.466Z,12.65
2022-10-17T03:48:21.928Z,12.62
2022-10-17T03:49:26.429Z,12.60
2022-10-17T03:50:28.417Z,12.58
2022-10-17T03:51:33.589Z,12.57
2022-10-17T03:52:39.015Z,12.55
2022-10-17T03:53:43.470Z,12.55
2022-10-17T03:54:45.674Z,12.56
2022-10-17T03:55:50.139Z,12.54
2022-10-17T03:56:53.112Z,12.54
2022-10-17T03:57:58.196Z,12.54
2022-10-17T03:59:00.030Z,12.56
2022-10-17T04:00:06.580Z,12.60
2022-10-17T04:01:17.469Z,12.65
2022-10-17T04:02:23.391Z,12.71
2022-10-17T04:03:25.369Z,12.78
2022-10-17T04:04:29.838Z,12.84
2022-10-17T04:05:32.397Z,12.90
2022-10-17T04:06:36.982Z,12.93
2022-10-17T04:07:39.633Z,12.99
2022-10-17T04:08:44.905Z,13.01
2022-10-17T04:09:50.824Z,13.04
2022-10-17T04:11:01.220Z,13.08
2022-10-17T04:12:03.251Z,13.12
2022-10-17T04:13:09.293Z,13.16
2022-10-17T04:14:11.122Z,13.21
2022-10-17T04:15:16.826Z,13.23
2022-10-17T04:16:19.999Z,13.23
2022-10-17T04:17:48.501Z,13.21
2022-10-17T04:18:58.438Z,13.16
2022-10-17T04:20:04.448Z,13.13
2022-10-17T04:21:06.558Z,13.08
2022-10-17T04:22:11.323Z,13.04
2022-10-17T04:23:14.811Z,13.01
2022-10-17T04:24:19.359Z,12.95
2022-10-17T04:25:26.652Z,12.89
2022-10-17T04:26:31.605Z,12.87
2022-10-17T04:27:33.443Z,12.82
2022-10-17T04:29:41.388Z,12.76
2022-10-17T04:30:58.892Z,12.71
2022-10-17T04:32:07.162Z,12.69
2022-10-17T04:33:35.774Z,12.67
2022-10-17T04:34:37.570Z,12.65
2022-10-17T04:35:42.066Z,12.65
2022-10-17T04:36:44.025Z,12.63
2022-10-17T04:37:48.480Z,12.63
2022-10-17T04:38:53.180Z,12.63
2022-10-17T04:39:58.456Z,12.63
2022-10-17T04:41:03.220Z,12.64
2022-10-17T04:42:07.853Z,12.65
2022-10-17T04:43:09.691Z,12.65
2022-10-17T04:44:15.371Z,12.66
2022-10-17T04:45:23.084Z,12.67
2022-10-17T04:46:32.746Z,12.68
2022-10-17T04:47:34.605Z,12.68
2022-10-17T04:48:39.701Z,12.71
2022-10-17T04:49:44.225Z,12.73
2022-10-17T04:50:55.599Z,12.74
2022-10-17T04:52:08.985Z,12.75
2022-10-17T04:53:23.433Z,12.75
2022-10-17T04:54:27.886Z,12.75
2022-10-17T04:55:37.917Z,12.74
2022-10-17T04:56:42.452Z,12.72
2022-10-17T04:57:44.834Z,12.71
2022-10-17T04:58:57.791Z,12.72
2022-10-17T04:59:59.712Z,12.72
2022-10-17T05:01:25.171Z,12.71
2022-10-17T05:02:28.624Z,12.71
2022-10-17T05:03:33.578Z,12.70
2022-10-17T05:04:35.745Z,12.68
2022-10-17T05:05:41.408Z,12.69
2022-10-17T05:06:43.257Z,12.68
2022-10-17T05:08:16.127Z,12.66
2022-10-17T05:09:19.030Z,12.63
2022-10-17T05:10:23.547Z,12.61
2022-10-17T05:11:31.105Z,12.60
2022-10-17T05:12:32.990Z,12.57
2022-10-17T05:13:37.490Z,12.54
2022-10-17T05:14:42.645Z,12.50
2022-10-17T05:15:44.472Z,12.47
2022-10-17T05:16:50.559Z,12.45
2022-10-17T05:17:54.690Z,12.42
2022-10-17T05:18:59.989Z,12.42
2022-10-17T05:20:06.830Z,12.40
2022-10-17T05:21:12.606Z,12.40
2022-10-17T05:22:15.869Z,12.39
2022-10-17T05:23:21.278Z,12.38
2022-10-17T05:24:24.689Z,12.38
2022-10-17T05:25:29.142Z,12.38
2022-10-17T05:26:33.595Z,12.36
2022-10-17T05:27:35.468Z,12.35
2022-10-17T05:28:40.222Z,12.35
2022-10-17T05:29:42.712Z,12.37
2022-10-17T05:31:05.091Z,12.36
2022-10-17T05:32:07.078Z,12.38
2022-10-17T05:33:12.653Z,12.41
2022-10-17T05:34:15.174Z,12.44
2022-10-17T05:35:20.187Z,12.46
2022-10-17T05:36:22.406Z,12.48
2022-10-17T05:37:26.933Z,12.51
2022-10-17T05:38:31.082Z,12.55
2022-10-17T05:39:35.549Z,12.59
2022-10-17T05:40:39.550Z,12.66
2022-10-17T05:41:44.116Z,12.69
2022-10-17T05:42:46.484Z,12.72
2022-10-17T05:43:51.151Z,12.77
2022-10-17T05:44:56.727Z,12.81
2022-10-17T05:46:01.186Z,12.83
2022-10-17T05:47:03.068Z,12.86
2022-10-17T05:48:09.098Z,12.88
2022-10-17T05:49:19.549Z,12.91
2022-10-17T05:50:36.471Z,12.93
2022-10-17T05:51:44.228Z,12.96
2022-10-17T05:52:48.998Z,12.99
2022-10-17T05:53:54.084Z,13.03
2022-10-17T05:55:00.772Z,13.04
2022-10-17T05:56:06.163Z,13.06
2022-10-17T05:57:08.027Z,13.07
2022-10-17T05:58:21.792Z,13.11
2022-10-17T05:59:28.570Z,13.15
2022-10-17T06:00:38.973Z,13.14
2022-10-17T06:01:40.983Z,13.15
2022-10-17T06:02:46.175Z,13.17
2022-10-17T06:03:50.165Z,13.21
2022-10-17T06:04:54.982Z,13.25
2022-10-17T06:06:05.939Z,13.30
2022-10-17T06:07:08.115Z,13.36
2022-10-17T06:08:12.899Z,13.41
2022-10-17T06:09:15.138Z,13.45
2022-10-17T06:10:23.569Z,13.50
2022-10-17T06:11:25.475Z,13.55
2022-10-17T06:12:30.224Z,13.61
2022-10-17T06:13:32.337Z,13.66
2022-10-17T06:14:39.342Z,13.72
2022-10-17T06:15:42.352Z,13.78
2022-10-17T06:16:47.830Z,13.82
2022-10-17T06:17:50.893Z,13.87
2022-10-17T06:18:55.418Z,13.93
2022-10-17T06:19:58.886Z,13.98
2022-10-17T06:21:13.057Z,14.06
2022-10-17T06:22:21.913Z,14.16
2022-10-17T06:23:23.744Z,14.24
2022-10-17T06:24:38.671Z,14.32
2022-10-17T06:25:40.647Z,14.40
2022-10-17T06:26:45.315Z,14.48
2022-10-17T06:27:49.519Z,14.56
2022-10-17T06:28:54.171Z,14.66
2022-10-17T06:29:56.019Z,14.71
2022-10-17T06:31:01.514Z,14.80
2022-10-17T06:32:03.758Z,14.87
2022-10-17T06:33:09.351Z,14.95
2022-10-17T06:34:11.306Z,15.03
2022-10-17T06:35:17.175Z,15.11
2022-10-17T06:36:20.129Z,15.21
2022-10-17T06:37:25.050Z,15.29
2022-10-17T06:38:28.413Z,15.38
2022-10-17T06:39:36.024Z,15.45
2022-10-17T06:40:45.263Z,15.57
2022-10-17T06:41:49.834Z,15.63
2022-10-17T06:42:56.886Z,15.71
2022-10-17T06:44:25.423Z,15.77
2022-10-17T06:45:58.892Z,15.94
2022-10-17T06:47:14.330Z,16.03
2022-10-17T06:48:18.953Z,16.11
2022-10-17T06:49:49.568Z,16.23
2022-10-17T06:51:04.632Z,16.33
2022-10-17T06:52:12.017Z,16.41
2022-10-17T06:53:25.155Z,16.51
2022-10-17T06:54:30.820Z,16.57
2022-10-17T06:56:11.198Z,16.68
2022-10-17T06:57:44.907Z,16.77
2022-10-17T06:59:08.069Z,16.86
2022-10-17T07:00:12.277Z,16.93
2022-10-17T07:01:21.485Z,16.99
2022-10-17T07:02:24.597Z,17.07
2022-10-17T07:03:30.479Z,17.13
2022-10-17T07:04:35.174Z,17.20
2022-10-17T07:05:37.074Z,17.26
2022-10-17T07:06:42.753Z,17.32
2022-10-17T07:07:52.160Z,17.38
2022-10-17T07:08:56.872Z,17.46
2022-10-17T07:09:58.895Z,17.54
2022-10-17T07:11:11.165Z,17.60
2022-10-17T07:12:15.606Z,17.68
2022-10-17T07:13:20.072Z,17.74
2022-10-17T07:14:26.255Z,17.80
2022-10-17T07:15:28.577Z,17.87
2022-10-17T07:16:33.203Z,17.90
2022-10-17T07:17:47.049Z,17.96
2022-10-17T07:18:49.499Z,18.00
2022-10-17T07:19:55.032Z,18.04
2022-10-17T07:20:56.946Z,18.08
2022-10-17T07:22:01.428Z,18.10
2022-10-17T07:23:03.438Z,18.13
2022-10-17T07:24:08.122Z,18.16
2022-10-17T07:25:10.198Z,18.18
2022-10-17T07:26:21.900Z,18.22
2022-10-17T07:27:24.782Z,18.23
2022-10-17T07:28:30.021Z,18.27
2022-10-17T07:29:36.160Z,18.30
2022-10-17T07:30:51.930Z,18.32
2022-10-17T07:31:55.747Z,18.34
2022-10-17T07:33:03.764Z,18.35
2022-10-17T07:34:08.977Z,18.37
2022-10-17T07:35:11.419Z,18.41
2022-10-17T07:36:16.753Z,18.44
2022-10-17T07:37:21.183Z,18.46
2022-10-17T07:38:31.253Z,18.49
2022-10-17T07:39:35.703Z,18.53
2022-10-17T07:40:40.187Z,18.55
2022-10-17T07:41:44.703Z,18.58
2022-10-17T07:42:46.762Z,18.62
2022-10-17T07:43:51.379Z,18.65
2022-10-17T07:44:56.854Z,18.66
2022-10-17T07:46:04.118Z,18.68
2022-10-17T07:47:07.630Z,18.72
2022-10-17T07:48:14.103Z,18.77
2022-10-17T07:49:18.587Z,18.80
2022-10-17T07:50:20.624Z,18.85
2022-10-17T07:51:25.066Z,18.88
2022-10-17T07:52:27.099Z,18.94
2022-10-17T07:53:31.839Z,18.98
2022-10-17T07:54:36.358Z,19.03
2022-10-17T07:55:38.586Z,19.08
2022-10-17T07:56:43.032Z,19.15
2022-10-17T07:57:44.935Z,19.19
2022-10-17T07:58:49.583Z,19.23
2022-10-17T07:59:52.039Z,19.27
2022-10-17T08:00:56.599Z,19.29
2022-10-17T08:01:59.549Z,19.31
2022-10-17T08:03:04.035Z,19.31
2022-10-17T08:04:08.548Z,19.32
2022-10-17T08:05:10.375Z,19.35
2022-10-17T08:06:15.382Z,19.38
2022-10-17T08:07:22.163Z,19.43
2022-10-17T08:08:30.469Z,19.48
2022-10-17T08:09:32.361Z,19.51
2022-10-17T08:10:36.759Z,19.52
2022-10-17T08:11:41.271Z,19.54
2022-10-17T08:12:43.177Z,19.57
2022-10-17T08:13:47.608Z,19.59
2022-10-17T08:14:49.411Z,19.63
2022-10-17T08:15:53.922Z,19.66
2022-10-17T08:16:56.080Z,19.68
2022-10-17T08:18:00.795Z,19.71
2022-10-17T08:19:05.706Z,19.74
2022-10-17T08:20:07.901Z,19.75
2022-10-17T08:21:13.377Z,19.76
2022-10-17T08:22:15.284Z,19.79
2022-10-17T08:23:19.752Z,19.81
2022-10-17T08:24:21.812Z,19.84
2022-10-17T08:25:26.813Z,19.84
2022-10-17T08:26:28.813Z,19.86
2022-10-17T08:27:33.730Z,19.87
2022-10-17T08:28:36.158Z,19.90
2022-10-17T08:29:40.975Z,19.92
2022-10-17T08:30:42.833Z,19.94
2022-10-17T08:31:48.324Z,19.97
2022-10-17T08:32:51.818Z,20.00
2022-10-17T08:33:56.247Z,20.01
2022-10-17T08:34:58.121Z,20.06
2022-10-17T08:36:03.159Z,20.10
2022-10-17T08:37:07.714Z,20.14
2022-10-17T08:38:12.247Z,20.19
2022-10-17T08:39:17.934Z,20.25
2022-10-17T08:40:24.138Z,20.27
2022-10-17T08:41:35.881Z,20.31
2022-10-17T08:42:43.233Z,20.36
2022-10-17T08:44:14.043Z,20.42
2022-10-17T08:45:32.839Z,20.46
2022-10-17T08:46:38.545Z,20.52
2022-10-17T08:47:44.740Z,20.55
2022-10-17T08:48:49.769Z,20.61
2022-10-17T08:49:55.906Z,20.64
2022-10-17T08:51:06.207Z,20.69
2022-10-17T08:52:14.479Z,20.72
2022-10-17T08:53:16.303Z,20.78
2022-10-17T08:54:25.561Z,20.85
2022-10-17T08:55:33.371Z,20.90
2022-10-17T08:56:49.899Z,20.98
2022-10-17T08:57:54.435Z,21.05
2022-10-17T08:58:58.866Z,21.11
2022-10-17T09:00:00.754Z,21.16
2022-10-17T09:01:11.963Z,21.22
2022-10-17T09:02:33.593Z,21.27
2022-10-17T09:03:48.793Z,21.36
2022-10-17T09:04:57.538Z,21.46
2022-10-17T09:06:10.430Z,21.52
2022-10-17T09:07:21.712Z,21.61
2022-10-17T09:08:29.160Z,21.68
2022-10-17T09:09:36.743Z,21.72
2022-10-17T09:10:54.273Z,21.77
2022-10-17T09:12:04.466Z,21.82
2022-10-17T09:13:25.189Z,21.90
2022-10-17T09:14:30.282Z,21.96
2022-10-17T09:15:53.362Z,22.04
2022-10-17T09:17:04.462Z,22.11
2022-10-17T09:18:12.111Z,22.18
2022-10-17T09:19:13.898Z,22.25
2022-10-17T09:20:25.581Z,22.30
2022-10-17T09:21:50.235Z,22.38
2022-10-17T09:24:22.587Z,22.52
2022-10-17T09:25:27.065Z,22.58
2022-10-17T09:26:28.867Z,22.64
2022-10-17T09:27:50.769Z,22.62
2022-10-17T09:28:56.244Z,22.71
2022-10-17T09:30:17.193Z,22.77
2022-10-17T09:31:38.328Z,22.78
2022-10-17T09:32:41.223Z,22.81
2022-10-17T09:33:54.840Z,22.82
2022-10-17T09:34:59.754Z,22.88
2022-10-17T09:36:01.630Z,22.91
2022-10-17T09:37:11.559Z,22.96
2022-10-17T09:38:25.959Z,23.02
2022-10-17T09:39:32.173Z,23.05
2022-10-17T09:40:34.764Z,23.08
2022-10-17T09:41:45.939Z,23.10
2022-10-17T09:42:52.011Z,23.13
2022-10-17T09:43:59.761Z,23.12
2022-10-17T09:45:01.539Z,23.11
2022-10-17T09:46:06.636Z,23.11
2022-10-17T09:47:14.515Z,23.12
2022-10-17T09:48:18.892Z,23.13
2022-10-17T09:49:25.511Z,23.16
2022-10-17T09:50:28.512Z,23.19
2022-10-17T09:51:33.280Z,23.22
2022-10-17T09:52:35.857Z,23.26
2022-10-17T09:53:41.239Z,23.29
2022-10-17T09:54:45.778Z,23.32
2022-10-17T09:55:51.111Z,23.39
2022-10-17T09:57:08.855Z,23.39
2022-10-17T09:58:13.579Z,23.43
2022-10-17T09:59:15.453Z,23.43
2022-10-17T10:00:27.960Z,23.45
2022-10-17T10:01:34.977Z,23.47
2022-10-17T10:02:40.959Z,23.48
2022-10-17T10:03:42.764Z,23.49
2022-10-17T10:05:06.942Z,23.51
2022-10-17T10:06:21.881Z,23.52
2022-10-17T10:07:29.095Z,23.55
2022-10-17T10:08:37.728Z,23.58
2022-10-17T10:09:40.478Z,23.58
2022-10-17T10:10:45.740Z,23.59
2022-10-17T10:11:56.943Z,23.59
2022-10-17T10:13:05.560Z,23.60
2022-10-17T10:14:14.300Z,23.60
2022-10-17T10:15:37.947Z,23.62
2022-10-17T10:16:45.713Z,23.64
2022-10-17T10:17:50.173Z,23.64
2022-10-17T10:18:54.682Z,23.61
2022-10-17T10:19:56.527Z,23.63
2022-10-17T10:21:10.140Z,23.62
2022-10-17T10:22:18.210Z,23.64
2022-10-17T10:23:22.260Z,23.67
2022-10-17T10:24:30.752Z,23.68
2022-10-17T10:25:33.128Z,23.67
2022-10-17T10:26:47.177Z,23.79
2022-10-17T10:27:49.051Z,23.83
2022-10-17T10:29:00.850Z,23.85
2022-10-17T10:30:05.535Z,23.88
2022-10-17T10:31:07.682Z,23.90
2022-10-17T10:32:12.086Z,23.92
2022-10-17T10:33:13.886Z,23.94
2022-10-17T10:34:29.773Z,23.96
2022-10-17T10:35:35.178Z,23.98
2022-10-17T10:36:46.432Z,24.00
2022-10-17T10:37:51.722Z,23.99
2022-10-17T10:38:54.614Z,24.00
2022-10-17T10:40:02.618Z,24.02
2022-10-17T10:41:08.026Z,24.04
2022-10-17T10:42:26.655Z,24.06
2022-10-17T10:43:38.919Z,24.08
2022-10-17T10:44:42.225Z,24.10
2022-10-17T10:45:48.319Z,24.14
2022-10-17T10:47:05.853Z,24.19
2022-10-17T10:48:37.378Z,24.22
2022-10-17T10:49:40.213Z,24.28
2022-10-17T10:51:13.924Z,24.35
2022-10-17T10:52:21.719Z,24.44
2022-10-17T10:53:35.453Z,24.52
2022-10-17T10:54:41.179Z,24.58
2022-10-17T10:55:56.712Z,24.64
2022-10-17T10:57:03.446Z,24.71
2022-10-17T10:58:10.129Z,24.78
2022-10-17T10:59:20.268Z,24.85
2022-10-17T11:00:26.101Z,24.93
2022-10-17T11:01:33.615Z,24.99
2022-10-17T11:02:57.331Z,25.06
2022-10-17T11:04:06.909Z,25.13
2022-10-17T11:05:19.152Z,25.14
2022-10-17T11:06:26.028Z,25.17
2022-10-17T11:07:31.152Z,25.18
2022-10-17T11:08:37.377Z,25.18
2022-10-17T11:10:00.504Z,25.18
2022-10-17T11:11:18.362Z,25.16
2022-10-17T11:12:39.610Z,25.15
2022-10-17T11:13:43.541Z,25.13
2022-10-17T11:14:47.897Z,25.11
2022-10-17T11:15:54.564Z,25.09
2022-10-17T11:16:59.950Z,25.07
2022-10-17T11:18:08.440Z,25.03
2022-10-17T11:19:49.659Z,24.99
2022-10-17T11:20:58.391Z,24.90
2022-10-17T11:22:05.877Z,24.85
2022-10-17T11:23:13.106Z,24.81
2022-10-17T11:24:16.958Z,24.76
2022-10-17T11:25:35.068Z,24.74
2022-10-17T11:26:41.587Z,24.72
2022-10-17T11:27:43.401Z,24.70
2022-10-17T11:28:47.884Z,24.70
2022-10-17T11:29:49.820Z,24.73
2022-10-17T11:30:54.335Z,24.72
2022-10-17T11:31:56.958Z,24.71
2022-10-17T11:33:03.006Z,24.72
2022-10-17T11:34:07.373Z,24.73
2022-10-17T11:35:20.409Z,24.74
2022-10-17T11:36:22.853Z,24.76
2022-10-17T11:37:29.675Z,24.78
2022-10-17T11:38:34.169Z,24.80
2022-10-17T11:40:04.955Z,24.80
2022-10-17T11:41:06.993Z,24.79
2022-10-17T11:42:22.862Z,24.80
2022-10-17T11:43:48.113Z,24.81
2022-10-17T11:44:52.535Z,24.84
2022-10-17T11:46:01.469Z,24.85
2022-10-17T11:47:10.297Z,24.85
2022-10-17T11:48:22.721Z,24.87
2022-10-17T11:52:55.411Z,25.00
2022-10-17T11:54:02.340Z,25.06
2022-10-17T11:55:09.375Z,25.09
2022-10-17T11:56:14.022Z,25.17
2022-10-17T11:57:37.595Z,25.25
2022-10-17T11:58:41.969Z,25.34
2022-10-17T12:00:01.803Z,25.44
2022-10-17T12:01:09.034Z,25.56
2022-10-17T12:02:20.241Z,25.65
2022-10-17T12:03:39.917Z,25.72
2022-10-17T12:04:50.456Z,25.80
2022-10-17T12:05:57.665Z,25.84
2022-10-17T12:07:04.953Z,25.88
2022-10-17T12:08:14.545Z,25.90
2022-10-17T12:09:19.274Z,25.92
2022-10-17T12:10:27.609Z,25.94
2022-10-17T12:11:36.386Z,25.97
2022-10-17T12:12:40.794Z,25.97
2022-10-17T12:13:50.119Z,25.99
2022-10-17T12:14:54.597Z,26.01
2022-10-17T12:15:57.075Z,26.01
2022-10-17T12:17:01.538Z,26.03
2022-10-17T12:18:03.976Z,26.02
2022-10-17T12:19:19.010Z,26.01
2022-10-17T12:20:23.601Z,26.01
2022-10-17T12:21:31.223Z,26.00
2022-10-17T12:22:34.083Z,26.00
2022-10-17T12:23:39.043Z,25.98
2022-10-17T12:24:42.031Z,25.96
2022-10-17T12:25:57.121Z,25.94
2022-10-17T12:27:31.367Z,25.93
2022-10-17T12:28:48.976Z,25.85
2022-10-17T12:29:51.002Z,25.81
2022-10-17T12:31:02.662Z,25.78
2022-10-17T12:32:11.137Z,25.76
2022-10-17T12:33:15.526Z,25.74
2022-10-17T12:34:19.932Z,25.72
2022-10-17T12:35:22.861Z,25.69
2022-10-17T12:36:30.314Z,25.66
2022-10-17T12:38:02.761Z,25.64
2022-10-17T12:39:11.748Z,25.57
2022-10-17T12:40:34.780Z,25.50
2022-10-17T12:41:42.616Z,25.42
2022-10-17T12:42:48.965Z,25.37
2022-10-17T12:43:57.125Z,25.31
2022-10-17T12:44:59.013Z,25.26
2022-10-17T12:46:04.055Z,25.22
2022-10-17T12:47:29.017Z,25.17
2022-10-17T12:48:34.408Z,25.10
2022-10-17T12:49:45.619Z,25.03
2022-10-17T12:52:36.887Z,24.89
2022-10-17T12:53:50.176Z,24.83
2022-10-17T12:55:13.001Z,24.74
2022-10-17T12:56:19.382Z,24.69
2022-10-17T12:57:21.200Z,24.65
2022-10-17T12:58:25.641Z,24.61
2022-10-17T12:59:30.430Z,24.57
2022-10-17T13:01:23.949Z,24.56
2022-10-17T13:02:30.880Z,24.52
2022-10-17T13:03:36.023Z,24.49
2022-10-17T13:04:38.126Z,24.43
2022-10-17T13:05:44.442Z,24.41
2022-10-17T13:06:48.236Z,24.38
2022-10-17T13:07:52.779Z,24.30
2022-10-17T13:09:04.062Z,24.30
2022-10-17T13:10:07.736Z,24.25
2022-10-17T13:11:13.579Z,24.22
2022-10-17T13:12:18.609Z,24.17
2022-10-17T13:13:24.274Z,24.12
2022-10-17T13:14:26.164Z,24.09
2022-10-17T13:15:30.582Z,24.05
2022-10-17T13:16:36.265Z,24.01
2022-10-17T13:17:43.021Z,24.00
2022-10-17T13:18:48.364Z,23.97
2022-10-17T13:19:50.230Z,23.92
2022-10-17T13:20:58.795Z,23.88
2022-10-17T13:22:06.554Z,23.83
2022-10-17T13:23:24.891Z,23.81
2022-10-17T13:24:33.456Z,23.76
2022-10-17T13:25:39.617Z,23.72
2022-10-17T13:26:45.375Z,23.69
2022-10-17T13:27:50.511Z,23.67
2022-10-17T13:29:05.546Z,23.63
2022-10-17T13:30:29.494Z,23.59
2022-10-17T13:31:35.824Z,23.57
2022-10-17T13:32:42.385Z,23.56
2022-10-17T13:33:44.442Z,23.55
2022-10-17T13:34:48.897Z,23.53
2022-10-17T13:36:00.293Z,23.46
2022-10-17T13:37:09.361Z,23.49
2022-10-17T13:38:13.981Z,23.50
2022-10-17T13:39:23.101Z,23.48
2022-10-17T13:40:49.461Z,23.48
2022-10-17T13:41:58.242Z,23.47
2022-10-17T13:43:02.253Z,23.46
2022-10-17T13:44:07.611Z,23.46
2022-10-17T13:45:31.161Z,23.45
2022-10-17T13:46:38.445Z,23.43
2022-10-17T13:47:44.118Z,23.43
2022-10-17T13:48:49.586Z,23.41
2022-10-17T13:49:55.541Z,23.40
2022-10-17T13:51:02.464Z,23.38
2022-10-17T13:52:08.147Z,23.35
2022-10-17T13:53:15.726Z,23.33
2022-10-17T13:54:20.980Z,23.30
2022-10-17T13:55:25.410Z,23.29
2022-10-17T13:56:31.988Z,23.27
2022-10-17T13:57:34.238Z,23.26
2022-10-17T13:58:47.642Z,23.25
2022-10-17T13:59:50.322Z,23.23
2022-10-17T14:00:54.905Z,23.21
2022-10-17T14:02:01.715Z,23.19
2022-10-17T14:03:06.900Z,23.14
2022-10-17T14:04:19.834Z,23.11
2022-10-17T14:05:23.426Z,23.03
2022-10-17T14:06:28.295Z,23.05
2022-10-17T14:09:25.619Z,22.95
2022-10-17T14:10:35.471Z,22.92
2022-10-17T14:11:40.989Z,22.90
2022-10-17T14:12:43.080Z,22.87
2022-10-17T14:13:50.742Z,22.84
2022-10-17T14:15:10.044Z,22.83
2022-10-17T14:16:12.535Z,22.79
2022-10-17T14:17:30.035Z,22.76
2022-10-17T14:18:36.169Z,22.72
2022-10-17T14:19:41.270Z,22.71
2022-10-17T14:21:29.232Z,22.68
2022-10-17T14:22:17.871Z,22.67
2022-10-17T14:23:29.945Z,22.66
2022-10-17T14:24:34.860Z,22.64
2022-10-17T14:25:37.751Z,22.61
2022-10-17T14:26:51.500Z,22.60
2022-10-17T14:27:55.537Z,22.60
2022-10-17T14:29:08.232Z,22.58
2022-10-17T14:32:00.890Z,22.53
2022-10-17T14:33:04.182Z,22.53
2022-10-17T14:34:08.634Z,22.50
2022-10-17T14:35:40.600Z,22.49
2022-10-17T14:36:43.668Z,22.45
2022-10-17T14:37:46.423Z,22.43
2022-10-17T14:38:51.453Z,22.42